createdAt,value
2023-04-09T06:14:16.770Z,8.92
2023-04-09T06:16:45.989Z,8.82
2023-04-09T06:19:17.785Z,8.98
2023-04-09T06:21:46.882Z,8.98
2023-04-09T06:24:21.783Z,9.15
2023-04-09T06:26:56.807Z,9.11
2023-04-09T06:29:39.947Z,9.36
2023-04-09T06:32:10.518Z,9.51
2023-04-09T06:34:39.441Z,9.65
2023-04-09T06:37:15.269Z,9.71
2023-04-09T06:39:50.647Z,9.69
2023-04-09T06:43:00.841Z,9.57
2023-04-09T06:45:30.420Z,9.65
2023-04-09T06:48:42.859Z,10.11
2023-04-09T06:51:12.895Z,10.17
2023-04-09T06:53:42.779Z,10.04
2023-04-09T06:56:11.774Z,10.38
2023-04-09T06:58:40.972Z,10.28
2023-04-09T07:01:10.216Z,10.48
2023-04-09T07:04:06.213Z,10.50
2023-04-09T07:06:35.277Z,10.52
2023-04-09T07:09:25.373Z,10.63
2023-04-09T07:12:01.840Z,10.41
2023-04-09T07:14:31.152Z,10.38
2023-04-09T07:17:00.306Z,10.50
2023-04-09T07:20:06.652Z,10.52
2023-04-09T07:22:37.027Z,10.47
2023-04-09T07:25:29.933Z,10.86
2023-04-09T07:27:59.996Z,10.61
2023-04-09T07:31:05.528Z,11.04
2023-04-09T07:33:49.292Z,11.15
2023-04-09T07:36:18.308Z,11.16
2023-04-09T07:38:47.384Z,11.05
2023-04-09T07:41:16.800Z,11.18
2023-04-09T07:43:45.702Z,11.37
2023-04-09T07:46:33.611Z,11.27
2023-04-09T07:49:05.223Z,11.12
2023-04-09T07:51:50.519Z,11.45
2023-04-09T07:54:49.877Z,11.26
2023-04-09T07:57:18.634Z,11.45
2023-04-09T07:59:47.760Z,11.29
2023-04-09T08:02:16.599Z,11.42
2023-04-09T08:04:47.341Z,11.34
2023-04-09T08:07:22.204Z,11.61
2023-04-09T08:10:03.874Z,11.69
2023-04-09T08:12:39.428Z,11.75
2023-04-09T08:15:36.526Z,12.00
2023-04-09T08:18:11.808Z,12.00
2023-04-09T08:20:45.740Z,11.98
2023-04-09T08:23:15.123Z,12.15
2023-04-09T08:25:44.056Z,12.09
2023-04-09T08:28:13.033Z,11.92
2023-04-09T08:30:45.172Z,12.13
2023-04-09T08:33:15.810Z,12.12
2023-04-09T08:35:48.099Z,12.20
2023-04-09T08:38:16.761Z,12.24
2023-04-09T08:40:45.860Z,12.16
2023-04-09T08:43:16.849Z,12.30
2023-04-09T08:45:45.152Z,12.13
2023-04-09T08:48:19.229Z,11.91
2023-04-09T08:50:48.090Z,12.23
2023-04-09T08:53:19.752Z,12.27
2023-04-09T08:55:49.246Z,12.57
2023-04-09T08:58:19.280Z,12.39
2023-04-09T09:00:47.592Z,12.64
2023-04-09T09:03:24.650Z,12.65
2023-04-09T09:05:53.403Z,12.67
2023-04-09T09:12:01.821Z,12.76
2023-04-09T09:14:34.076Z,12.84
2023-04-09T09:17:07.015Z,12.90
2023-04-09T09:19:39.749Z,13.31
2023-04-09T09:22:13.677Z,13.25
2023-04-09T09:25:00.609Z,13.23
2023-04-09T09:27:44.444Z,13.55
2023-04-09T09:30:31.254Z,13.62
2023-04-09T09:33:14.480Z,13.57
2023-04-09T09:36:35.969Z,13.77
2023-04-09T09:39:19.642Z,13.60
2023-04-09T09:41:48.897Z,13.73
2023-04-09T09:44:36.774Z,14.19
2023-04-09T09:47:10.037Z,13.96
2023-04-09T09:49:39.177Z,14.03
2023-04-09T09:52:12.871Z,14.04
2023-04-09T09:55:00.500Z,14.36
2023-04-09T09:57:40.142Z,14.22
2023-04-09T10:00:16.025Z,14.73
2023-04-09T10:03:29.307Z,14.58
2023-04-09T10:06:02.518Z,14.41
2023-04-09T10:09:51.229Z,15.04
2023-04-09T10:12:24.693Z,15.05
2023-04-09T10:15:22.020Z,15.25
2023-04-09T10:21:37.147Z,15.59
2023-04-09T10:24:12.907Z,15.59
2023-04-09T10:26:45.345Z,16.00
2023-04-09T10:29:17.261Z,16.03
2023-04-09T10:32:07.935Z,16.35
2023-04-09T10:35:11.814Z,16.55
2023-04-09T10:37:50.044Z,16.87
2023-04-09T10:41:20.072Z,16.88
2023-04-09T10:44:35.935Z,16.73
2023-04-09T10:47:35.843Z,16.87
2023-04-09T10:50:43.624Z,17.16
2023-04-09T10:53:28.240Z,17.46
2023-04-09T10:56:49.672Z,17.49
2023-04-09T10:59:25.031Z,17.35
2023-04-09T11:02:00.058Z,17.76
2023-04-09T11:05:40.161Z,17.75
2023-04-09T11:08:22.740Z,18.37
2023-04-09T11:10:53.862Z,18.05
2023-04-09T11:13:22.865Z,17.93
2023-04-09T11:15:51.774Z,18.54
2023-04-09T11:18:34.725Z,18.64
2023-04-09T11:21:12.862Z,18.89
2023-04-09T11:23:43.708Z,19.30
2023-04-09T11:26:13.105Z,19.35
2023-04-09T11:29:23.556Z,19.71
2023-04-09T11:31:58.905Z,19.47
2023-04-09T11:34:47.340Z,19.59
2023-04-09T11:37:57.056Z,19.88
2023-04-09T11:40:29.906Z,20.02
2023-04-09T11:43:25.296Z,20.02
2023-04-09T11:45:56.502Z,19.43
2023-04-09T11:48:28.422Z,19.72
2023-04-09T11:50:57.565Z,19.90
2023-04-09T11:53:34.686Z,20.22
2023-04-09T11:56:04.202Z,20.35
2023-04-09T11:58:33.603Z,20.78
2023-04-09T12:01:09.825Z,20.74
2023-04-09T12:04:03.409Z,21.29
2023-04-09T12:06:33.319Z,20.85
2023-04-09T12:09:05.702Z,20.87
2023-04-09T12:11:47.191Z,21.34
2023-04-09T12:14:26.195Z,21.21
2023-04-09T12:16:57.587Z,21.25
2023-04-09T12:19:40.619Z,21.17
2023-04-09T12:22:09.494Z,21.11
2023-04-09T12:24:38.142Z,21.59
2023-04-09T12:27:28.401Z,20.95
2023-04-09T12:29:57.347Z,21.39
2023-04-09T12:32:26.505Z,21.98
2023-04-09T12:34:56.015Z,22.27
2023-04-09T12:37:25.580Z,21.68
2023-04-09T12:40:28.793Z,22.00
2023-04-09T12:43:57.860Z,22.25
2023-04-09T12:46:42.431Z,22.91
2023-04-09T12:49:36.126Z,22.55
2023-04-09T12:52:07.927Z,22.74
2023-04-09T12:54:53.892Z,23.35
2023-04-09T12:57:46.256Z,23.26
2023-04-09T13:00:16.497Z,23.85
2023-04-09T13:02:45.841Z,24.13
2023-04-09T13:05:25.725Z,24.11
2023-04-09T13:07:57.147Z,23.53
2023-04-09T13:10:26.730Z,23.92
2023-04-09T13:12:55.793Z,23.52
2023-04-09T13:15:24.990Z,23.81
2023-04-09T13:17:54.310Z,24.24
2023-04-09T13:20:23.549Z,23.68
2023-04-09T13:22:52.937Z,23.70
2023-04-09T13:25:24.286Z,23.70
2023-04-09T13:27:53.367Z,24.15
2023-04-09T13:30:42.861Z,23.97
2023-04-09T13:33:16.650Z,24.17
2023-04-09T13:35:46.211Z,23.58
2023-04-09T13:38:35.923Z,23.94
2023-04-09T13:41:30.748Z,23.95
2023-04-09T13:44:02.430Z,23.98
2023-04-09T13:46:36.931Z,24.06
2023-04-09T13:49:19.029Z,24.37
2023-04-09T13:51:50.465Z,24.19
2023-04-09T13:54:26.510Z,23.75
2023-04-09T13:57:31.907Z,24.79
2023-04-09T14:00:23.837Z,24.41
2023-04-09T14:03:30.974Z,24.29
2023-04-09T14:05:59.748Z,24.22
2023-04-09T14:08:33.095Z,24.34
2023-04-09T14:11:50.013Z,24.45
2023-04-09T14:14:26.759Z,24.22
2023-04-09T14:16:55.535Z,24.26
2023-04-09T14:19:25.595Z,24.36
2023-04-09T14:21:55.744Z,25.00
2023-04-09T14:24:25.606Z,24.27
2023-04-09T14:27:12.714Z,24.78
2023-04-09T14:30:09.512Z,24.29
2023-04-09T14:33:00.413Z,24.02
2023-04-09T14:36:01.507Z,24.82
2023-04-09T14:41:40.401Z,24.95
2023-04-09T14:44:09.424Z,24.99
2023-04-09T14:47:06.793Z,24.48
2023-04-09T14:49:50.923Z,24.61
2023-04-09T14:52:20.389Z,24.66
2023-04-09T14:54:49.351Z,23.73
2023-04-09T15:01:07.936Z,25.14
2023-04-09T15:04:02.377Z,24.71
2023-04-09T15:06:32.864Z,24.62
2023-04-09T15:09:02.205Z,24.51
2023-04-09T15:11:35.068Z,24.74
2023-04-09T15:14:04.348Z,23.79
2023-04-09T15:16:47.613Z,24.30
2023-04-09T15:19:16.680Z,23.81
2023-04-09T15:21:46.064Z,24.14
2023-04-09T15:24:15.320Z,24.41
2023-04-09T15:26:44.092Z,24.42
2023-04-09T15:29:42.685Z,23.80
2023-04-09T15:32:33.106Z,23.77
2023-04-09T15:35:02.535Z,23.69
2023-04-09T15:38:18.950Z,24.27
2023-04-09T15:41:12.132Z,23.91
2023-04-09T15:43:41.091Z,23.52
2023-04-09T15:46:13.289Z,23.60
2023-04-09T15:48:42.815Z,23.61
2023-04-09T15:51:12.172Z,23.48
2023-04-09T15:53:41.569Z,23.34
2023-04-09T15:56:16.739Z,22.81
2023-04-09T15:58:45.398Z,23.87
2023-04-09T16:01:16.781Z,22.73
2023-04-09T16:03:45.015Z,22.37
2023-04-09T16:06:41.016Z,22.11
2023-04-09T16:09:09.636Z,22.34
2023-04-09T16:11:39.033Z,22.16
2023-04-09T16:14:45.457Z,22.76
2023-04-09T16:17:14.606Z,21.77
2023-04-09T16:19:44.245Z,21.58
2023-04-09T16:22:13.857Z,21.61
2023-04-09T16:24:43.092Z,21.32
2023-04-09T16:27:20.738Z,20.86
2023-04-09T16:29:49.118Z,20.68
2023-04-09T16:32:42.023Z,21.24
2023-04-09T16:35:11.562Z,21.04
2023-04-09T16:41:19.173Z,20.12
2023-04-09T16:44:36.680Z,19.77
2023-04-09T16:47:06.746Z,20.49
2023-04-09T16:54:35.473Z,20.57
2023-04-09T16:57:12.112Z,20.04
2023-04-09T16:59:42.896Z,19.98
2023-04-09T17:02:12.327Z,19.77
2023-04-09T17:05:25.805Z,19.99
2023-04-09T17:07:54.991Z,19.32
2023-04-09T17:10:23.813Z,19.59
2023-04-09T17:13:42.425Z,19.74
2023-04-09T17:16:36.781Z,19.54
2023-04-09T17:19:06.315Z,19.43
2023-04-09T17:21:37.640Z,19.43
2023-04-09T17:24:19.453Z,19.52
2023-04-09T17:26:59.212Z,18.97
2023-04-09T17:29:55.760Z,19.06
2023-04-09T17:35:43.668Z,18.71
2023-04-09T17:38:30.686Z,19.18
2023-04-09T17:41:00.064Z,18.79
2023-04-09T17:44:09.684Z,18.33
2023-04-09T17:46:37.493Z,18.34
2023-04-09T17:49:10.456Z,18.42
2023-04-09T17:51:42.762Z,18.30
2023-04-09T17:54:10.193Z,18.27
2023-04-09T17:56:39.132Z,18.13
2023-04-09T17:59:07.333Z,18.13
2023-04-09T18:01:34.983Z,18.05
2023-04-09T18:04:02.825Z,18.01
2023-04-09T18:06:31.629Z,17.84
2023-04-09T18:08:59.210Z,18.03
2023-04-09T18:11:27.224Z,17.96
2023-04-09T18:13:54.727Z,17.70
2023-04-09T18:16:23.408Z,17.99
2023-04-09T18:18:51.128Z,17.84
2023-04-09T18:21:18.609Z,17.74
2023-04-09T18:23:46.595Z,17.93
2023-04-09T18:26:14.080Z,17.76
2023-04-09T18:28:42.014Z,17.68
2023-04-09T18:31:12.189Z,17.80
2023-04-09T18:33:39.814Z,17.59
2023-04-09T18:36:07.625Z,17.81
2023-04-09T18:38:35.132Z,17.73
2023-04-09T18:41:03.548Z,17.61
2023-04-09T18:43:31.037Z,17.62
2023-04-09T18:45:58.477Z,17.47
2023-04-09T18:48:26.129Z,17.41
2023-04-09T18:50:53.646Z,17.26
2023-04-09T18:53:21.352Z,17.30
2023-04-09T18:55:48.865Z,17.21
2023-04-09T18:58:16.445Z,17.13
2023-04-09T19:00:43.979Z,17.36
2023-04-09T19:03:12.272Z,16.93
2023-04-09T19:05:40.281Z,17.05
2023-04-09T19:08:08.006Z,16.91
2023-04-09T19:10:36.183Z,16.98
2023-04-09T19:13:04.169Z,17.14
2023-04-09T19:15:31.781Z,17.00
2023-04-09T19:17:59.308Z,16.88
2023-04-09T19:20:27.317Z,17.03
2023-04-09T19:22:56.676Z,16.75
2023-04-09T19:25:24.265Z,16.71
2023-04-09T19:27:53.709Z,16.74
2023-04-09T19:30:21.395Z,16.82
2023-04-09T19:32:48.982Z,16.25
2023-04-09T19:35:16.994Z,16.50
2023-04-09T19:37:44.998Z,16.77
2023-04-09T19:40:15.666Z,16.76
2023-04-09T19:42:43.334Z,16.52
2023-04-09T19:45:11.957Z,16.13
2023-04-09T19:47:39.634Z,16.31
2023-04-09T19:50:07.651Z,16.33
2023-04-09T19:52:35.157Z,16.29
2023-04-09T19:55:04.439Z,16.33
2023-04-09T19:57:31.993Z,16.13
2023-04-09T19:59:59.436Z,16.27
2023-04-09T20:02:27.064Z,16.25
2023-04-09T20:04:54.849Z,16.18
2023-04-09T20:07:22.467Z,16.08
2023-04-09T20:09:50.088Z,16.18
2023-04-09T20:12:17.757Z,16.21
2023-04-09T20:14:46.010Z,16.09
2023-04-09T20:17:13.622Z,16.06
2023-04-09T20:19:41.101Z,16.05
2023-04-09T20:22:08.620Z,16.06
2023-04-09T20:24:36.863Z,15.98
2023-04-09T20:27:04.528Z,16.22
2023-04-09T20:29:32.053Z,15.94
2023-04-09T20:31:59.581Z,16.01
2023-04-09T20:34:28.212Z,16.12
2023-04-09T20:36:56.038Z,15.99
2023-04-09T20:39:26.820Z,15.77
2023-04-09T20:41:56.721Z,15.77
2023-04-09T20:44:24.644Z,15.74
2023-04-09T20:46:52.138Z,15.80
2023-04-09T20:49:19.740Z,15.32
2023-04-09T20:51:47.742Z,15.34
2023-04-09T20:54:15.592Z,15.45
2023-04-09T20:56:44.835Z,15.35
2023-04-09T20:59:12.444Z,15.45
2023-04-09T21:01:40.454Z,15.37
2023-04-09T21:04:08.975Z,15.29
2023-04-09T21:06:36.472Z,15.40
2023-04-09T21:09:03.984Z,15.43
2023-04-09T21:11:31.757Z,15.20
2023-04-09T21:13:59.512Z,15.18
2023-04-09T21:16:28.727Z,14.81
2023-04-09T21:18:56.693Z,15.24
2023-04-09T21:21:27.424Z,14.93
2023-04-09T21:23:54.962Z,14.78
2023-04-09T21:26:22.488Z,14.52
2023-04-09T21:28:50.667Z,14.57
2023-04-09T21:31:18.342Z,14.59
2023-04-09T21:33:46.179Z,14.66
2023-04-09T21:36:13.909Z,14.63
2023-04-09T21:38:41.592Z,14.26
2023-04-09T21:41:09.110Z,13.96
2023-04-09T21:43:38.483Z,14.24
2023-04-09T21:46:06.178Z,14.09
2023-04-09T21:48:33.749Z,13.92
2023-04-09T21:51:01.292Z,14.29
2023-04-09T21:53:31.534Z,13.91
2023-04-09T21:55:59.116Z,13.97
2023-04-09T21:58:26.547Z,13.77
2023-04-09T22:00:53.979Z,13.87
2023-04-09T22:03:22.667Z,13.78
2023-04-09T22:05:50.470Z,13.83
2023-04-09T22:08:18.459Z,13.66
2023-04-09T22:10:46.329Z,13.68
2023-04-09T22:13:13.836Z,13.77
2023-04-09T22:15:41.985Z,13.72
2023-04-09T22:18:09.580Z,13.68
2023-04-09T22:20:37.225Z,13.50
2023-04-09T22:23:04.698Z,13.55
2023-04-09T22:25:35.137Z,13.57
2023-04-09T22:28:02.770Z,13.43
2023-04-09T22:30:30.547Z,13.13
2023-04-09T22:32:58.097Z,13.34
2023-04-09T22:35:25.706Z,13.56
2023-04-09T22:37:53.425Z,13.34
2023-04-09T22:40:21.115Z,13.22
2023-04-09T22:42:48.798Z,13.21
2023-04-09T22:45:16.443Z,13.06
2023-04-09T22:47:43.989Z,13.05
2023-04-09T22:50:13.549Z,12.96
2023-04-09T22:52:41.074Z,13.11
2023-04-09T22:55:10.295Z,12.81
2023-04-09T22:57:38.488Z,13.18
2023-04-09T23:00:08.600Z,12.92
2023-04-09T23:02:37.084Z,12.91
2023-04-09T23:05:05.154Z,13.11
2023-04-09T23:07:32.758Z,12.95
2023-04-09T23:10:01.628Z,12.81
2023-04-09T23:12:29.099Z,12.79
2023-04-09T23:14:56.563Z,12.72
2023-04-09T23:17:24.701Z,13.03
2023-04-09T23:19:54.947Z,12.82
2023-04-09T23:22:24.358Z,12.79
2023-04-09T23:24:51.891Z,12.74
2023-04-09T23:27:19.798Z,12.87
2023-04-09T23:29:47.233Z,13.00
2023-04-09T23:32:14.732Z,12.80
2023-04-09T23:34:42.167Z,12.73
2023-04-09T23:37:10.348Z,12.72
2023-04-09T23:39:37.903Z,12.87
2023-04-09T23:42:05.914Z,12.83
2023-04-09T23:44:33.580Z,12.85
2023-04-09T23:47:01.586Z,12.81
2023-04-09T23:49:38.699Z,13.12
2023-04-09T23:52:12.170Z,12.93
2023-04-09T23:54:51.605Z,12.96
2023-04-09T23:57:25.482Z,12.92
2023-04-09T23:59:58.257Z,12.87
